createdAt,value
2019-04-05T00:00:59.191Z,16.27
2019-04-05T00:03:27.979Z,18.35
2019-04-05T00:05:56.609Z,20.77
2019-04-05T00:08:25.458Z,19.67
2019-04-05T00:10:54.173Z,19.37
2019-04-05T00:13:22.838Z,18.30
2019-04-05T00:15:51.513Z,18.80
2019-04-05T00:18:20.194Z,23.65
2019-04-05T00:20:48.884Z,18.87
2019-04-05T00:23:17.516Z,18.52
2019-04-05T00:25:46.183Z,16.37
2019-04-05T00:28:14.761Z,21.73
2019-04-05T00:30:43.570Z,19.27
2019-04-05T00:33:12.242Z,17.00
2019-04-05T00:35:40.879Z,17.10
2019-04-05T00:38:09.477Z,18.62
2019-04-05T00:40:38.214Z,19.15
2019-04-05T00:43:06.811Z,15.93
2019-04-05T00:45:36.234Z,15.63
2019-04-05T00:48:04.941Z,19.00
2019-04-05T00:50:33.680Z,15.45
2019-04-05T00:53:02.310Z,16.55
2019-04-05T00:55:31.022Z,20.90
2019-04-05T00:57:59.791Z,20.40
2019-04-05T01:00:28.434Z,17.50
2019-04-05T01:02:57.157Z,21.37
2019-04-05T01:05:25.997Z,19.67
2019-04-05T01:07:54.837Z,12.98
2019-04-05T01:10:23.562Z,21.62
2019-04-05T01:12:52.330Z,19.85
2019-04-05T01:15:21.136Z,15.30
2019-04-05T01:17:50.130Z,17.62
2019-04-05T01:20:18.855Z,16.55
2019-04-05T01:22:47.833Z,17.85
2019-04-05T01:25:16.660Z,18.32
2019-04-05T01:27:48.216Z,16.50
2019-04-05T01:30:16.188Z,17.82
2019-04-05T01:32:45.619Z,13.22
2019-04-05T01:35:14.498Z,16.93
2019-04-05T01:37:43.526Z,15.53
2019-04-05T01:40:12.436Z,22.40
2019-04-05T01:42:41.779Z,19.40
2019-04-05T01:45:12.271Z,20.55
2019-04-05T01:47:41.329Z,16.55
2019-04-05T01:50:10.625Z,17.60
2019-04-05T01:52:39.909Z,17.42
2019-04-05T01:55:08.893Z,20.05
2019-04-05T01:57:37.649Z,22.95
2019-04-05T02:00:09.404Z,20.60
2019-04-05T02:02:38.134Z,20.48
2019-04-05T02:05:08.741Z,17.95
2019-04-05T02:07:38.302Z,24.92
2019-04-05T02:10:08.646Z,30.57
2019-04-05T02:12:38.294Z,21.30
2019-04-05T02:15:09.259Z,34.20
2019-04-05T02:17:38.092Z,30.32
2019-04-05T02:20:07.957Z,39.78
2019-04-05T02:22:36.939Z,84.55
2019-04-05T02:25:06.998Z,51.37
2019-04-05T02:27:35.844Z,49.63
2019-04-05T02:30:06.507Z,32.35
2019-04-05T02:32:35.227Z,32.58
2019-04-05T02:35:05.446Z,26.30
2019-04-05T02:37:34.065Z,26.07
2019-04-05T02:40:02.768Z,22.80
2019-04-05T02:42:33.321Z,22.30
2019-04-05T02:45:02.808Z,21.37
2019-04-05T02:47:31.962Z,21.75
2019-04-05T02:50:01.998Z,23.30
2019-04-05T02:52:31.242Z,19.50
2019-04-05T02:55:00.329Z,19.52
2019-04-05T02:57:30.215Z,18.57
2019-04-05T02:59:59.952Z,20.17
2019-04-05T03:02:29.745Z,18.02
2019-04-05T03:04:58.461Z,27.90
2019-04-05T03:07:28.028Z,28.62
2019-04-05T03:09:57.791Z,27.37
2019-04-05T03:12:26.943Z,28.92
2019-04-05T03:14:56.207Z,22.62
2019-04-05T03:17:25.339Z,23.40
2019-04-05T03:19:57.014Z,35.03
2019-04-05T03:22:28.450Z,37.88
2019-04-05T03:24:59.111Z,37.80
2019-04-05T03:27:31.105Z,23.87
2019-04-05T03:30:00.274Z,21.35
2019-04-05T03:32:29.040Z,31.95
2019-04-05T03:34:58.564Z,22.40
2019-04-05T03:37:27.528Z,24.45
2019-04-05T03:39:56.349Z,23.52
2019-04-05T03:42:25.264Z,22.65
2019-04-05T03:44:54.008Z,29.90
2019-04-05T03:47:22.859Z,20.48
2019-04-05T03:49:51.586Z,27.45
2019-04-05T03:52:20.294Z,24.77
2019-04-05T03:54:49.318Z,19.20
2019-04-05T03:57:18.129Z,25.92
2019-04-05T03:59:47.244Z,28.57
2019-04-05T04:02:15.894Z,21.48
2019-04-05T04:04:44.670Z,28.32
2019-04-05T04:07:13.918Z,29.77
2019-04-05T04:09:42.735Z,32.13
2019-04-05T04:12:11.428Z,20.02
2019-04-05T04:14:40.167Z,26.62
2019-04-05T04:17:12.825Z,26.75
2019-04-05T04:19:39.465Z,27.10
2019-04-05T04:22:28.462Z,29.02
2019-04-05T04:24:58.358Z,37.98
2019-04-05T04:27:27.974Z,27.75
2019-04-05T04:30:00.211Z,27.37
2019-04-05T04:32:27.283Z,28.12
2019-04-05T04:34:56.093Z,37.95
2019-04-05T04:37:24.762Z,18.95
2019-04-05T04:39:53.825Z,24.37
2019-04-05T04:42:23.654Z,26.25
2019-04-05T04:44:53.624Z,29.27
2019-04-05T04:47:26.945Z,33.15
2019-04-05T04:49:56.086Z,28.77
2019-04-05T04:52:25.283Z,67.42
2019-04-05T04:54:54.107Z,62.45
2019-04-05T04:57:22.938Z,61.53
2019-04-05T04:59:51.755Z,28.67
2019-04-05T05:02:20.526Z,32.67
2019-04-05T05:04:49.554Z,23.15
2019-04-05T05:07:18.916Z,41.30
2019-04-05T05:09:47.974Z,32.53
2019-04-05T05:12:16.882Z,29.60
2019-04-05T05:14:45.620Z,40.30
2019-04-05T05:17:14.331Z,49.45
2019-04-05T05:19:43.391Z,25.62
2019-04-05T05:22:12.212Z,32.48
2019-04-05T05:24:41.451Z,32.20
2019-04-05T05:27:10.812Z,32.67
2019-04-05T05:29:39.641Z,33.67
2019-04-05T05:32:09.784Z,28.80
2019-04-05T05:34:38.745Z,21.55
2019-04-05T05:37:07.679Z,38.10
2019-04-05T05:39:36.309Z,32.48
2019-04-05T05:42:05.044Z,41.28
2019-04-05T05:44:33.745Z,34.63
2019-04-05T05:47:02.480Z,34.55
2019-04-05T05:49:31.152Z,45.23
2019-04-05T05:51:59.993Z,32.08
2019-04-05T05:54:28.691Z,40.90
2019-04-05T05:56:57.269Z,60.58
2019-04-05T05:59:27.800Z,36.90
2019-04-05T06:01:56.230Z,30.40
2019-04-05T06:04:24.800Z,44.25
2019-04-05T06:06:53.654Z,34.10
2019-04-05T06:09:22.318Z,33.13
2019-04-05T06:11:50.965Z,37.63
2019-04-05T06:14:19.747Z,26.30
2019-04-05T06:16:48.251Z,77.03
2019-04-05T06:19:18.586Z,29.37
2019-04-05T06:21:47.252Z,48.15
2019-04-05T06:24:15.826Z,48.68
2019-04-05T06:26:44.623Z,52.78
2019-04-05T06:29:13.335Z,32.38
2019-04-05T06:31:41.962Z,32.45
2019-04-05T06:34:10.637Z,35.63
2019-04-05T06:36:39.663Z,52.95
2019-04-05T06:39:08.929Z,29.18
2019-04-05T06:41:37.722Z,28.65
2019-04-05T06:44:06.379Z,57.95
2019-04-05T06:46:35.012Z,43.85
2019-04-05T06:49:03.985Z,31.95
2019-04-05T06:51:32.579Z,31.33
2019-04-05T06:54:03.345Z,40.60
2019-04-05T06:56:31.647Z,28.45
2019-04-05T06:59:00.218Z,34.48
2019-04-05T07:01:28.875Z,32.53
2019-04-05T07:03:57.632Z,31.27
2019-04-05T07:06:26.314Z,35.75
2019-04-05T07:08:54.946Z,28.75
2019-04-05T07:11:23.659Z,33.05
2019-04-05T07:13:52.404Z,28.70
2019-04-05T07:16:21.181Z,28.98
2019-04-05T07:18:49.861Z,31.85
2019-04-05T07:21:18.581Z,32.17
2019-04-05T07:23:47.269Z,28.15
2019-04-05T07:26:15.991Z,33.70
2019-04-05T07:28:44.586Z,40.67
2019-04-05T07:31:13.268Z,27.07
2019-04-05T07:33:41.856Z,22.42
2019-04-05T07:36:10.522Z,27.77
2019-04-05T07:38:39.156Z,24.07
2019-04-05T07:41:07.960Z,34.05
2019-04-05T07:43:36.565Z,35.78
2019-04-05T07:46:05.334Z,32.15
2019-04-05T07:48:44.027Z,28.35
2019-04-05T07:51:04.448Z,28.00
2019-04-05T07:53:33.043Z,29.07
2019-04-05T07:56:01.687Z,26.55
2019-04-05T07:58:30.329Z,31.93
2019-04-05T08:00:59.062Z,27.17
2019-04-05T08:03:27.847Z,28.27
2019-04-05T08:05:56.577Z,29.52
2019-04-05T08:08:30.962Z,27.82
2019-04-05T08:10:59.915Z,28.17
2019-04-05T08:13:31.143Z,35.63
2019-04-05T08:16:01.412Z,27.00
2019-04-05T08:18:30.397Z,33.70
2019-04-05T08:20:59.079Z,22.00
2019-04-05T08:23:27.693Z,24.45
2019-04-05T08:25:56.283Z,26.42
2019-04-05T08:28:24.922Z,28.65
2019-04-05T08:30:53.779Z,27.00
2019-04-05T08:33:22.634Z,26.97
2019-04-05T08:35:51.268Z,29.30
2019-04-05T08:38:19.829Z,29.02
2019-04-05T08:40:48.474Z,29.52
2019-04-05T08:43:17.166Z,17.60
2019-04-05T08:45:46.084Z,24.10
2019-04-05T08:48:14.846Z,25.95
2019-04-05T08:50:43.548Z,20.88
2019-04-05T08:53:12.274Z,22.67
2019-04-05T08:55:40.915Z,23.40
2019-04-05T08:58:09.787Z,14.28
2019-04-05T09:00:38.537Z,19.90
2019-04-05T09:03:08.221Z,21.50
2019-04-05T09:05:36.849Z,21.60
2019-04-05T09:08:05.805Z,25.02
2019-04-05T09:10:34.727Z,16.40
2019-04-05T09:13:03.584Z,17.12
2019-04-05T09:15:32.176Z,14.70
2019-04-05T09:18:00.926Z,21.40
2019-04-05T09:20:29.617Z,24.50
2019-04-05T09:22:58.335Z,30.45
2019-04-05T09:25:27.059Z,27.58
2019-04-05T09:27:55.765Z,22.00
2019-04-05T09:30:24.465Z,20.30
2019-04-05T09:32:53.253Z,16.02
2019-04-05T09:35:22.019Z,23.50
2019-04-05T09:37:50.772Z,21.40
2019-04-05T09:40:21.135Z,19.15
2019-04-05T09:42:49.949Z,16.97
2019-04-05T09:45:18.643Z,26.05
2019-04-05T09:47:47.246Z,22.05
2019-04-05T09:50:16.170Z,28.73
2019-04-05T09:52:44.922Z,25.10
2019-04-05T09:55:13.619Z,17.62
2019-04-05T09:57:42.326Z,13.65
2019-04-05T10:00:20.478Z,18.07
2019-04-05T10:02:49.195Z,20.02
2019-04-05T10:05:17.781Z,23.75
2019-04-05T10:07:54.921Z,16.27
2019-04-05T10:10:17.029Z,17.73
2019-04-05T10:12:45.760Z,16.23
2019-04-05T10:15:14.463Z,22.87
2019-04-05T10:17:43.142Z,40.55
2019-04-05T10:20:11.986Z,26.87
2019-04-05T10:22:40.549Z,17.27
2019-04-05T10:25:09.541Z,17.73
2019-04-05T10:27:38.203Z,15.90
2019-04-05T10:30:12.093Z,17.90
2019-04-05T10:32:40.871Z,11.83
2019-04-05T10:35:09.812Z,13.00
2019-04-05T10:37:38.391Z,14.58
2019-04-05T10:40:07.695Z,15.68
2019-04-05T10:42:37.549Z,70.62
2019-04-05T10:45:10.958Z,16.17
2019-04-05T10:47:39.839Z,19.75
2019-04-05T10:50:11.507Z,11.73
2019-04-05T10:52:40.911Z,13.20
2019-04-05T10:55:11.004Z,13.72
2019-04-05T10:57:39.602Z,12.33
2019-04-05T11:00:14.851Z,16.80
2019-04-05T11:02:43.550Z,38.90
2019-04-05T11:05:12.852Z,20.20
2019-04-05T11:07:41.525Z,16.73
2019-04-05T11:10:10.762Z,12.53
2019-04-05T11:12:39.354Z,21.52
2019-04-05T11:15:08.403Z,21.82
2019-04-05T11:17:38.415Z,15.83
2019-04-05T11:20:20.764Z,14.78
2019-04-05T11:22:40.070Z,16.82
2019-04-05T11:25:10.818Z,14.10
2019-04-05T11:27:39.457Z,14.40
2019-04-05T11:30:10.877Z,19.42
2019-04-05T11:32:39.564Z,11.78
2019-04-05T11:35:09.072Z,12.15
2019-04-05T11:37:39.670Z,12.93
2019-04-05T11:40:10.255Z,15.93
2019-04-05T11:42:39.092Z,14.98
2019-04-05T11:45:11.265Z,13.88
2019-04-05T11:47:42.603Z,15.05
2019-04-05T11:50:12.261Z,13.65
2019-04-05T11:52:40.998Z,18.77
2019-04-05T11:55:10.062Z,11.33
2019-04-05T11:57:40.940Z,11.00
2019-04-05T12:00:13.644Z,17.42
2019-04-05T12:02:55.912Z,15.15
2019-04-05T12:05:26.879Z,12.50
2019-04-05T12:07:58.569Z,17.25
2019-04-05T12:10:25.258Z,14.13
2019-04-05T12:12:53.890Z,14.93
2019-04-05T12:15:22.498Z,12.15
2019-04-05T12:17:51.134Z,14.87
2019-04-05T12:20:20.015Z,13.05
2019-04-05T12:22:48.672Z,10.78
2019-04-05T12:25:17.226Z,17.48
2019-04-05T12:27:45.885Z,11.93
2019-04-05T12:30:16.827Z,14.13
2019-04-05T12:32:46.660Z,12.28
2019-04-05T12:35:15.888Z,12.75
2019-04-05T12:37:50.623Z,15.60
2019-04-05T12:40:15.877Z,11.65
2019-04-05T12:42:44.486Z,19.65
2019-04-05T12:45:15.280Z,15.25
2019-04-05T12:47:45.603Z,12.03
2019-04-05T12:50:15.545Z,15.83
2019-04-05T12:52:44.256Z,10.63
2019-04-05T12:55:13.184Z,17.73
2019-04-05T12:57:41.854Z,14.73
2019-04-05T13:00:14.252Z,14.90
2019-04-05T13:02:43.372Z,8.23
2019-04-05T13:05:12.461Z,16.52
2019-04-05T13:07:41.143Z,12.47
2019-04-05T13:10:10.140Z,17.20
2019-04-05T13:12:38.813Z,11.05
2019-04-05T13:15:13.851Z,20.37
2019-04-05T13:17:38.335Z,10.85
2019-04-05T13:20:08.896Z,11.93
2019-04-05T13:22:37.627Z,9.95
2019-04-05T13:25:10.717Z,11.20
2019-04-05T13:27:41.337Z,8.00
2019-04-05T13:30:08.512Z,12.93
2019-04-05T13:32:37.213Z,12.43
2019-04-05T13:35:07.199Z,12.63
2019-04-05T13:37:35.906Z,9.18
2019-04-05T13:40:06.498Z,13.88
2019-04-05T13:42:35.529Z,17.23
2019-04-05T13:45:07.100Z,13.93
2019-04-05T13:47:38.179Z,11.08
2019-04-05T13:50:10.888Z,11.93
2019-04-05T13:52:41.461Z,11.68
2019-04-05T13:55:10.454Z,8.63
2019-04-05T13:57:40.873Z,10.58
2019-04-05T14:00:10.304Z,11.12
2019-04-05T14:02:38.959Z,16.52
2019-04-05T14:05:07.746Z,12.60
2019-04-05T14:07:36.310Z,15.13
2019-04-05T14:10:10.519Z,11.20
2019-04-05T14:12:40.113Z,11.78
2019-04-05T14:15:11.283Z,17.42
2019-04-05T14:17:41.763Z,9.60
2019-04-05T14:20:10.314Z,11.85
2019-04-05T14:22:38.962Z,12.18
2019-04-05T14:25:08.449Z,13.78
2019-04-05T14:27:37.106Z,15.58
2019-04-05T14:30:07.359Z,9.20
2019-04-05T14:32:36.032Z,11.73
2019-04-05T14:35:07.946Z,11.43
2019-04-05T14:37:37.010Z,13.75
2019-04-05T14:40:07.110Z,29.40
2019-04-05T14:42:35.752Z,17.10
2019-04-05T14:45:09.306Z,17.87
2019-04-05T14:47:38.066Z,17.02
2019-04-05T14:50:08.534Z,13.30
2019-04-05T14:52:37.249Z,13.75
2019-04-05T14:55:06.190Z,15.28
2019-04-05T14:57:36.569Z,14.45
2019-04-05T15:00:08.816Z,12.93
2019-04-05T15:02:37.442Z,14.47
2019-04-05T15:05:08.399Z,18.20
2019-04-05T15:07:37.929Z,13.80
2019-04-05T15:10:07.572Z,15.90
2019-04-05T15:12:36.306Z,12.80
2019-04-05T15:15:09.396Z,20.10
2019-04-05T15:17:47.867Z,18.30
2019-04-05T15:20:10.168Z,20.43
2019-04-05T15:22:41.584Z,16.80
2019-04-05T15:25:09.774Z,12.15
2019-04-05T15:27:38.514Z,15.53
2019-04-05T15:30:07.824Z,14.73
2019-04-05T15:32:37.426Z,21.95
2019-04-05T15:35:07.830Z,15.72
2019-04-05T15:37:37.611Z,23.10
2019-04-05T15:40:08.547Z,13.53
2019-04-05T15:42:37.197Z,19.27
2019-04-05T15:45:15.733Z,15.43
2019-04-05T15:47:42.354Z,12.15
2019-04-05T15:50:11.376Z,17.80
2019-04-05T15:52:39.984Z,20.12
2019-04-05T15:55:08.922Z,11.30
2019-04-05T15:57:39.422Z,15.60
2019-04-05T16:00:11.149Z,14.33
2019-04-05T16:02:42.750Z,28.47
2019-04-05T16:05:10.687Z,19.80
2019-04-05T16:07:39.419Z,14.95
2019-04-05T16:10:10.309Z,14.45
2019-04-05T16:12:38.965Z,18.23
2019-04-05T16:15:08.173Z,15.23
2019-04-05T16:17:36.925Z,15.05
2019-04-05T16:20:11.386Z,18.27
2019-04-05T16:22:40.013Z,18.15
2019-04-05T16:25:10.314Z,17.27
2019-04-05T16:27:39.053Z,24.32
2019-04-05T16:30:08.564Z,27.30
2019-04-05T16:32:37.237Z,17.60
2019-04-05T16:35:06.684Z,19.02
2019-04-05T16:37:35.538Z,19.20
2019-04-05T16:40:07.266Z,18.77
2019-04-05T16:42:35.920Z,13.43
2019-04-05T16:45:10.140Z,20.45
2019-04-05T16:47:38.913Z,17.02
2019-04-05T16:50:08.519Z,22.15
2019-04-05T16:52:44.886Z,20.05
2019-04-05T16:55:07.688Z,14.47
2019-04-05T16:57:36.292Z,18.77
2019-04-05T17:00:07.493Z,25.45
2019-04-05T17:02:36.117Z,36.10
2019-04-05T17:05:06.768Z,23.60
2019-04-05T17:07:35.325Z,26.12
2019-04-05T17:10:04.977Z,35.50
2019-04-05T17:12:33.765Z,20.92
2019-04-05T17:15:02.477Z,19.67
2019-04-05T17:17:31.066Z,17.67
2019-04-05T17:19:59.804Z,22.02
2019-04-05T17:22:28.473Z,16.77
2019-04-05T17:24:57.137Z,19.52
2019-04-05T17:27:25.737Z,22.55
2019-04-05T17:29:54.438Z,17.82
2019-04-05T17:32:22.995Z,18.37
2019-04-05T17:34:51.643Z,13.90
2019-04-05T17:37:20.357Z,22.58
2019-04-05T17:39:49.030Z,29.57
2019-04-05T17:42:17.613Z,18.92
2019-04-05T17:44:46.233Z,18.82
2019-04-05T17:47:14.878Z,25.70
2019-04-05T17:49:43.463Z,30.40
2019-04-05T17:52:12.090Z,23.95
2019-04-05T17:54:40.687Z,22.00
2019-04-05T17:57:09.375Z,24.82
2019-04-05T17:59:38.764Z,27.27
2019-04-05T18:02:07.587Z,25.50
2019-04-05T18:04:36.198Z,21.07
2019-04-05T18:07:04.967Z,20.95
2019-04-05T18:09:33.560Z,22.35
2019-04-05T18:12:02.131Z,27.42
2019-04-05T18:14:30.756Z,29.15
2019-04-05T18:16:59.430Z,38.30
2019-04-05T18:19:28.034Z,53.38
2019-04-05T18:21:56.641Z,59.77
2019-04-05T18:24:25.244Z,52.15
2019-04-05T18:26:53.912Z,53.08
2019-04-05T18:29:22.598Z,18.12
2019-04-05T18:31:51.199Z,25.72
2019-04-05T18:34:19.807Z,60.63
2019-04-05T18:36:48.484Z,31.27
2019-04-05T18:39:17.077Z,19.95
2019-04-05T18:41:45.675Z,22.32
2019-04-05T18:44:14.349Z,31.25
2019-04-05T18:46:42.985Z,36.20
2019-04-05T18:49:11.599Z,35.98
2019-04-05T18:51:40.226Z,25.35
2019-04-05T18:54:08.953Z,21.27
2019-04-05T18:56:37.635Z,21.73
2019-04-05T18:59:06.318Z,19.02
2019-04-05T19:01:34.978Z,23.67
2019-04-05T19:04:05.452Z,19.20
2019-04-05T19:06:34.033Z,22.67
2019-04-05T19:09:02.701Z,22.52
2019-04-05T19:11:31.293Z,23.55
2019-04-05T19:14:01.273Z,26.17
2019-04-05T19:16:30.178Z,25.60
2019-04-05T19:18:58.785Z,19.42
2019-04-05T19:21:27.459Z,22.67
2019-04-05T19:23:56.035Z,25.80
2019-04-05T19:26:24.666Z,27.95
2019-04-05T19:28:53.429Z,33.35
2019-04-05T19:48:54.357Z,27.48
2019-04-05T19:51:23.002Z,24.60
2019-04-05T19:54:00.793Z,22.52
2019-04-05T19:56:21.885Z,23.18
2019-04-05T19:58:50.541Z,29.40
2019-04-05T20:01:19.249Z,24.52
2019-04-05T20:03:47.867Z,35.75
2019-04-05T20:06:16.507Z,24.18
2019-04-05T20:08:45.123Z,23.95
2019-04-05T20:11:13.773Z,24.85
2019-04-05T20:13:42.478Z,26.27
2019-04-05T20:16:11.034Z,27.60
2019-04-05T20:18:39.739Z,23.95
2019-04-05T20:21:08.479Z,24.45
2019-04-05T20:23:42.989Z,24.00
2019-04-05T20:26:07.658Z,31.05
2019-04-05T20:28:36.226Z,32.45
2019-04-05T20:31:04.950Z,29.77
2019-04-05T20:33:33.504Z,23.40
2019-04-05T20:36:02.193Z,33.58
2019-04-05T20:38:30.757Z,38.08
2019-04-05T20:40:59.519Z,30.62
2019-04-05T20:43:28.119Z,36.42
2019-04-05T20:45:56.794Z,32.73
2019-04-05T20:48:25.547Z,32.75
2019-04-05T20:50:54.227Z,31.82
2019-04-05T20:53:22.860Z,31.25
2019-04-05T20:55:51.491Z,32.80
2019-04-05T20:58:20.102Z,39.20
2019-04-05T21:00:48.746Z,30.65
2019-04-05T21:03:17.301Z,30.88
2019-04-05T21:05:45.969Z,32.55
2019-04-05T21:08:14.622Z,30.52
2019-04-05T21:10:43.270Z,33.35
2019-04-05T21:13:11.871Z,30.12
2019-04-05T21:15:40.456Z,31.52
2019-04-05T21:18:09.057Z,24.10
2019-04-05T21:20:37.663Z,30.43
2019-04-05T21:23:06.410Z,25.02
2019-04-05T21:25:35.206Z,39.40
2019-04-05T21:28:03.766Z,35.40
2019-04-05T21:30:32.523Z,47.13
2019-04-05T21:33:01.093Z,27.75
2019-04-05T21:35:29.762Z,28.92
2019-04-05T21:37:58.358Z,29.52
2019-04-05T21:40:26.964Z,27.13
2019-04-05T21:42:55.577Z,21.68
2019-04-05T21:45:24.451Z,33.65
2019-04-05T21:47:53.171Z,28.87
2019-04-05T21:50:21.748Z,29.37
2019-04-05T21:52:50.341Z,20.52
2019-04-05T21:55:18.938Z,26.00
2019-04-05T21:57:47.513Z,26.02
2019-04-05T22:00:25.152Z,40.75
2019-04-05T22:02:53.716Z,22.37
2019-04-05T22:05:22.670Z,25.57
2019-04-05T22:07:51.679Z,20.15
2019-04-05T22:10:20.415Z,30.32
2019-04-05T22:12:49.055Z,24.25
2019-04-05T22:15:17.756Z,22.42
2019-04-05T22:17:46.380Z,23.50
2019-04-05T22:20:15.176Z,26.85
2019-04-05T22:22:43.825Z,24.35
2019-04-05T22:25:12.666Z,23.18
2019-04-05T22:27:41.317Z,19.82
2019-04-05T22:30:10.088Z,26.33
2019-04-05T22:32:38.690Z,21.27
2019-04-05T22:35:07.605Z,22.67
2019-04-05T22:37:36.176Z,26.73
2019-04-05T22:40:06.767Z,28.00
2019-04-05T22:42:35.356Z,29.50
2019-04-05T22:45:05.887Z,29.67
2019-04-05T22:47:34.943Z,27.25
2019-04-05T22:50:07.570Z,28.10
2019-04-05T22:52:36.104Z,30.20
2019-04-05T22:55:11.491Z,33.90
2019-04-05T22:57:36.593Z,24.35
2019-04-05T23:00:07.368Z,24.20
2019-04-05T23:02:36.113Z,19.80
2019-04-05T23:05:07.491Z,23.75
2019-04-05T23:07:37.591Z,23.27
2019-04-05T23:10:08.166Z,22.30
2019-04-05T23:12:36.803Z,17.62
2019-04-05T23:15:08.866Z,21.15
2019-04-05T23:17:37.531Z,26.50
2019-04-05T23:20:07.187Z,22.73
2019-04-05T23:22:35.789Z,24.20
2019-04-05T23:25:06.894Z,20.12
2019-04-05T23:27:35.714Z,24.12
2019-04-05T23:30:06.011Z,23.77
2019-04-05T23:32:34.581Z,20.82
2019-04-05T23:35:03.654Z,17.32
2019-04-05T23:37:32.364Z,21.40
2019-04-05T23:40:00.952Z,16.57
2019-04-05T23:42:29.513Z,19.75
2019-04-05T23:44:58.191Z,16.73
2019-04-05T23:47:26.728Z,20.97
2019-04-05T23:49:55.462Z,18.02
2019-04-05T23:52:24.291Z,17.65
2019-04-05T23:54:52.963Z,17.45
2019-04-05T23:57:21.718Z,25.48
2019-04-05T23:59:50.296Z,23.12
